Time;durP1;ratioP1;P1;durP2;ratioP2;P2;SDS_P1;SDS_P2;PMS_P1;PMS_P2;Temp;Humidity;BMP_temperature;BMP_pressure;BME280_temperature;BME280_humidity;BME280_pressure;Samples;Min_cycle;Max_cycle;Signal;HPM_P1;HPM_P2
2022/02/14 00:02:04;;;;;;;3.08;1.27;;;;;;;;;;5054471;28;20438;-46
2022/02/14 00:04:30;;;;;;;1.85;1.45;;;;;;;;;;5054525;28;20479;-45
2022/02/14 00:06:56;;;;;;;3.22;1.70;;;;;;;;;;5054349;28;20041;-45
2022/02/14 00:09:22;;;;;;;3.67;1.55;;;;;;;;;;5054319;28;20033;-45
2022/02/14 00:11:48;;;;;;;1.88;1.20;;;;;;;;;;5054394;28;20575;-45
2022/02/14 00:14:14;;;;;;;2.35;1.48;;;;;;;;;;5054309;28;20517;-43
2022/02/14 00:16:40;;;;;;;2.20;1.50;;;;;;;;;;5054171;28;20055;-44
2022/02/14 00:19:06;;;;;;;2.00;1.33;;;;;;;;;;5054173;28;20017;-44
2022/02/14 00:21:32;;;;;;;2.25;1.50;;;;;;;;;;5054132;28;20100;-44
2022/02/14 00:23:58;;;;;;;2.75;1.48;;;;;;;;;;5054071;28;20037;-44
2022/02/14 00:26:24;;;;;;;1.98;1.30;;;;;;;;;;5054292;28;20071;-44
2022/02/14 00:28:50;;;;;;;1.83;1.40;;;;;;;;;;5053944;28;20040;-43
2022/02/14 00:31:16;;;;;;;3.03;1.40;;;;;;;;;;5053930;28;20044;-44
2022/02/14 00:33:42;;;;;;;1.90;1.10;;;;;;;;;;5053881;28;20021;-45
2022/02/14 00:36:10;;;;;;;1.90;1.25;;;;;;;;;;5053759;28;20056;-45
2022/02/14 00:38:35;;;;;;;1.77;1.10;;;;;;;;;;5054099;28;20025;-46
2022/02/14 00:41:02;;;;;;;2.05;1.52;;;;;;;;;;5053746;28;20490;-46
2022/02/14 00:43:28;;;;;;;1.60;1.45;;;;;;;;;;5053705;28;20021;-46
2022/02/14 00:45:54;;;;;;;2.88;1.42;;;;;;;;;;5053663;28;20031;-45
2022/02/14 00:48:20;;;;;;;2.58;1.50;;;;;;;;;;5053651;28;20430;-46
2022/02/14 00:50:46;;;;;;;2.35;1.52;;;;;;;;;;5052765;28;20094;-44
2022/02/14 00:53:12;;;;;;;2.42;1.50;;;;;;;;;;5053553;28;20029;-44
2022/02/14 00:55:38;;;;;;;4.07;1.70;;;;;;;;;;5053497;28;20116;-43
2022/02/14 00:58:05;;;;;;;2.08;1.50;;;;;;;;;;5053421;28;20029;-44
2022/02/14 01:00:31;;;;;;;2.03;1.40;;;;;;;;;;5053693;28;20033;-44
2022/02/14 01:02:57;;;;;;;4.47;2.00;;;;;;;;;;5053317;28;20396;-44
2022/02/14 01:05:22;;;;;;;2.15;1.13;;;;;;;;;;5053554;28;20025;-43
2022/02/14 01:07:48;;;;;;;2.45;1.35;;;;;;;;;;5053253;28;20369;-44
2022/02/14 01:10:15;;;;;;;1.92;1.10;;;;;;;;;;5053126;28;20029;-43
2022/02/14 01:12:41;;;;;;;2.67;1.75;;;16.10;66.50;;;;;;5053187;28;20041;-44
2022/02/14 01:15:08;;;;;;;2.70;1.30;;;;;;;;;;5053354;28;20411;-44
2022/02/14 01:17:35;;;;;;;2.45;1.55;;;16.00;66.50;;;;;;5053062;28;20033;-44
2022/02/14 01:20:06;;;;;;;3.50;1.35;;;16.10;66.90;;;;;;5053013;28;20031;-44
2022/02/14 01:22:32;;;;;;;1.17;1.08;;;;;;;;;;5052943;28;20074;-44
2022/02/14 01:24:58;;;;;;;2.55;1.40;;;;;;;;;;5053012;28;20455;-44
2022/02/14 01:27:24;;;;;;;3.92;1.45;;;;;;;;;;5052840;28;20056;-46
2022/02/14 01:29:50;;;;;;;1.65;1.38;;;;;;;;;;5053080;28;20021;-44
2022/02/14 01:32:19;;;;;;;2.92;1.60;;;;;;;;;;5052832;28;20082;-43
2022/02/14 01:34:46;;;;;;;1.63;1.13;;;;;;;;;;5053022;28;20017;-44
2022/02/14 01:37:12;;;;;;;3.45;1.65;;;;;;;;;;5052734;28;20182;-43
2022/02/14 01:39:37;;;;;;;2.22;1.30;;;;;;;;;;5052734;28;20028;-44
2022/02/14 01:42:04;;;;;;;3.35;1.33;;;;;;;;;;5052627;28;20025;-44
2022/02/14 01:44:44;;;;;;;3.08;1.90;;;16.00;61.30;;;;;;5052547;28;20399;-44
2022/02/14 01:47:12;;;;;;;2.78;1.33;;;15.90;66.40;;;;;;5052665;28;20036;-45
2022/02/14 01:49:39;;;;;;;1.88;1.40;;;;;;;;;;5052519;28;20067;-46
2022/02/14 01:52:06;;;;;;;1.58;1.10;;;16.00;66.10;;;;;;5052452;28;20033;-45
2022/02/14 01:54:35;;;;;;;1.63;1.30;;;15.90;66.20;;;;;;5052611;28;20087;-45
2022/02/14 01:57:01;;;;;;;2.85;2.13;;;;;;;;;;5052342;28;20115;-46
2022/02/14 01:59:27;;;;;;;2.03;1.25;;;;;;;;;;5052252;28;20107;-45
2022/02/14 02:01:53;;;;;;;3.20;1.30;;;;;;;;;;5051923;28;20475;-44
2022/02/14 02:04:19;;;;;;;3.10;1.30;;;;;;;;;;5052198;28;20017;-44
2022/02/14 02:06:45;;;;;;;1.48;1.38;;;;;;;;;;5050932;28;20037;-46
2022/02/14 02:09:11;;;;;;;2.05;1.20;;;;;;;;;;5052207;28;20039;-45
2022/02/14 02:14:22;;;;;;;3.63;1.73;;;15.90;66.40;;;;;;5052134;28;20082;-45
2022/02/14 02:16:48;;;;;;;1.77;1.27;;;;;;;;;;5052064;28;20108;-46
2022/02/14 02:19:14;;;;;;;3.10;1.55;;;;;;;;;;5052050;28;20063;-45
2022/02/14 02:21:44;;;;;;;4.07;1.35;;;15.80;66.60;;;;;;5052039;28;20071;-45
2022/02/14 02:24:17;;;;;;;2.85;1.25;;;15.80;66.60;;;;;;5052124;28;20029;-43
2022/02/14 02:26:43;;;;;;;3.65;1.50;;;;;;;;;;5051919;28;20032;-44
2022/02/14 02:29:09;;;;;;;2.60;1.40;;;;;;;;;;5051945;28;20032;-43
2022/02/14 02:31:35;;;;;;;2.33;1.40;;;;;;;;;;5052048;28;20033;-44
2022/02/14 02:34:01;;;;;;;1.70;1.10;;;;;;;;;;5051890;28;20029;-44
2022/02/14 02:36:27;;;;;;;2.65;1.38;;;;;;;;;;5051654;28;20060;-44
2022/02/14 02:38:53;;;;;;;5.10;1.55;;;;;;;;;;5051876;28;20064;-44
2022/02/14 02:41:19;;;;;;;3.35;1.85;;;;;;;;;;5051902;28;20032;-45
2022/02/14 02:43:45;;;;;;;2.17;1.30;;;;;;;;;;5051890;28;20037;-45
2022/02/14 02:46:11;;;;;;;1.80;1.38;;;;;;;;;;5051763;28;20029;-45
2022/02/14 02:48:37;;;;;;;2.20;1.13;;;;;;;;;;5051712;28;20033;-46
2022/02/14 02:51:04;;;;;;;3.83;1.52;;;;;;;;;;5051660;28;20134;-46
2022/02/14 02:53:30;;;;;;;3.38;1.30;;;;;;;;;;5051718;28;20096;-45
2022/02/14 02:55:56;;;;;;;4.80;1.52;;;;;;;;;;5052000;28;20048;-45
2022/02/14 02:58:22;;;;;;;1.98;1.17;;;;;;;;;;5051760;28;20025;-45
2022/02/14 03:00:48;;;;;;;3.67;1.13;;;;;;;;;;5051713;28;20033;-45
2022/02/14 03:03:14;;;;;;;1.65;1.40;;;;;;;;;;5051701;28;20025;-45
2022/02/14 03:05:40;;;;;;;2.95;1.27;;;;;;;;;;5051577;28;20033;-45
2022/02/14 03:08:06;;;;;;;2.50;1.20;;;;;;;;;;5051603;28;20052;-45
2022/02/14 03:10:32;;;;;;;2.10;1.48;;;;;;;;;;5051482;28;20037;-46
2022/02/14 03:12:58;;;;;;;2.03;1.33;;;;;;;;;;5053119;28;20025;-45
2022/02/14 03:15:24;;;;;;;2.13;1.35;;;;;;;;;;5055519;28;20358;-46
2022/02/14 03:17:50;;;;;;;3.92;1.55;;;;;;;;;;5053933;28;20079;-44
2022/02/14 03:20:17;;;;;;;1.48;1.23;;;;;;;;;;5055384;28;20072;-45
2022/02/14 03:22:43;;;;;;;4.00;1.50;;;;;;;;;;5055235;28;20085;-46
2022/02/14 03:25:09;;;;;;;2.13;1.20;;;;;;;;;;5055224;28;20037;-46
2022/02/14 03:27:35;;;;;;;2.60;1.58;;;;;;;;;;5055126;28;20390;-46
2022/02/14 03:30:01;;;;;;;1.40;1.30;;;;;;;;;;5055031;28;20044;-46
2022/02/14 03:32:27;;;;;;;1.90;1.10;;;;;;;;;;5055101;28;20025;-46
2022/02/14 03:34:53;;;;;;;1.88;1.08;;;;;;;;;;5054846;28;20117;-45
2022/02/14 03:37:19;;;;;;;1.10;1.00;;;;;;;;;;5055127;28;20102;-45
2022/02/14 03:39:45;;;;;;;2.13;1.27;;;;;;;;;;5054951;28;20021;-45
2022/02/14 03:42:11;;;;;;;3.35;1.30;;;;;;;;;;5054912;28;20039;-44
2022/02/14 03:44:37;;;;;;;1.35;1.10;;;;;;;;;;5054917;28;20021;-44
2022/02/14 03:47:03;;;;;;;1.30;0.98;;;;;;;;;;5054833;28;20387;-44
2022/02/14 03:49:29;;;;;;;2.75;1.20;;;;;;;;;;5054662;28;20056;-45
2022/02/14 03:51:55;;;;;;;1.60;1.20;;;;;;;;;;5054676;28;20068;-44
2022/02/14 03:54:21;;;;;;;3.20;1.42;;;;;;;;;;5054653;28;20032;-44
2022/02/14 03:56:47;;;;;;;1.30;1.02;;;;;;;;;;5054672;28;20104;-46
2022/02/14 03:59:14;;;;;;;1.70;1.15;;;;;;;;;;5054609;28;20024;-45
2022/02/14 04:01:40;;;;;;;2.33;1.38;;;;;;;;;;5054782;28;20517;-47
2022/02/14 04:04:07;;;;;;;4.53;1.33;;;;;;;;;;5054432;28;20416;-46
2022/02/14 04:06:33;;;;;;;3.10;1.50;;;;;;;;;;5054440;28;20036;-46
2022/02/14 04:08:59;;;;;;;3.10;1.25;;;;;;;;;;5054382;28;20490;-45
2022/02/14 04:11:25;;;;;;;2.00;1.05;;;;;;;;;;5054260;28;20037;-48
2022/02/14 04:13:51;;;;;;;1.73;1.10;;;;;;;;;;5054308;28;20025;-46
2022/02/14 04:16:17;;;;;;;2.00;1.20;;;;;;;;;;5054246;28;20040;-45
2022/02/14 04:18:43;;;;;;;2.90;1.20;;;;;;;;;;5054204;28;20423;-46
2022/02/14 04:21:09;;;;;;;3.53;1.10;;;;;;;;;;5054159;28;20467;-46
2022/02/14 04:23:36;;;;;;;2.40;1.23;;;;;;;;;;5053893;28;20409;-46
2022/02/14 04:26:02;;;;;;;2.72;1.23;;;;;;;;;;5054355;28;20033;-47
2022/02/14 04:28:28;;;;;;;3.22;1.38;;;;;;;;;;5054039;28;20498;-46
2022/02/14 04:30:53;;;;;;;1.60;1.30;;;;;;;;;;5053904;28;20033;-46
2022/02/14 04:33:19;;;;;;;4.30;1.10;;;;;;;;;;5054257;28;20136;-46
2022/02/14 04:35:45;;;;;;;1.75;1.33;;;;;;;;;;5053776;28;20053;-47
2022/02/14 04:38:11;;;;;;;2.60;1.40;;;;;;;;;;5053834;28;20147;-46
2022/02/14 04:40:39;;;;;;;2.75;1.08;;;;;;;;;;5053797;28;20476;-45
2022/02/14 04:43:05;;;;;;;1.60;1.15;;;;;;;;;;5053662;28;20025;-46
2022/02/14 04:45:32;;;;;;;4.82;1.20;;;15.60;66.30;;;;;;5053706;28;20399;-45
2022/02/14 04:47:58;;;;;;;1.73;1.10;;;;;;;;;;5053708;28;20033;-46
2022/02/14 04:50:24;;;;;;;2.28;0.90;;;15.60;67.40;;;;;;5053819;28;20391;-45
2022/02/14 04:52:50;;;;;;;1.52;1.23;;;;;;;;;;5053630;28;20078;-45
2022/02/14 04:55:16;;;;;;;3.95;1.23;;;;;;;;;;5053465;28;20041;-46
2022/02/14 04:57:43;;;;;;;1.48;1.00;;;;;;;;;;5053493;28;20032;-47
2022/02/14 05:00:13;;;;;;;3.33;1.10;;;15.60;68.50;;;;;;5053386;28;20545;-46
2022/02/14 05:06:44;;;;;;;1.15;1.05;;;15.50;63.20;;;;;;5080540;28;20099;-45
2022/02/14 05:09:10;;;;;;;2.15;1.33;;;;;;;;;;5073415;28;20099;-44
2022/02/14 05:11:36;;;;;;;1.58;1.08;;;;;;;;;;5073448;28;20063;-45
2022/02/14 05:14:02;;;;;;;1.35;1.23;;;;;;;;;;5073281;28;20060;-45
2022/02/14 05:16:28;;;;;;;2.15;0.90;;;;;;;;;;5073248;28;20028;-45
2022/02/14 05:18:54;;;;;;;2.85;1.20;;;;;;;;;;5073285;28;20020;-45
2022/02/14 05:21:21;;;;;;;2.50;1.13;;;;;;;;;;5073134;28;20588;-45
2022/02/14 05:23:47;;;;;;;1.10;0.90;;;;;;;;;;5073067;28;20028;-44
2022/02/14 05:26:13;;;;;;;1.42;1.10;;;;;;;;;;5073000;28;20035;-45
2022/02/14 05:28:39;;;;;;;2.17;1.05;;;;;;;;;;5072907;28;20060;-44
2022/02/14 05:31:05;;;;;;;1.58;0.90;;;;;;;;;;5072903;28;20398;-45
2022/02/14 05:33:31;;;;;;;3.97;1.40;;;;;;;;;;5072825;28;20024;-45
2022/02/14 05:35:57;;;;;;;3.65;0.85;;;;;;;;;;5072168;28;20024;-45
2022/02/14 05:38:24;;;;;;;1.05;0.90;;;;;;;;;;5072766;28;20437;-46
2022/02/14 05:40:50;;;;;;;2.85;1.17;;;;;;;;;;5072992;28;20115;-47
2022/02/14 05:43:16;;;;;;;3.30;1.17;;;;;;;;;;5072706;28;20052;-46
2022/02/14 05:45:42;;;;;;;1.63;1.02;;;;;;;;;;5072602;28;20025;-46
2022/02/14 05:48:08;;;;;;;1.20;0.98;;;;;;;;;;5072590;28;20031;-46
2022/02/14 05:50:34;;;;;;;2.53;0.95;;;;;;;;;;5072588;28;20060;-46
2022/02/14 05:53:00;;;;;;;2.17;1.00;;;;;;;;;;5072401;28;20047;-46
2022/02/14 05:55:26;;;;;;;2.00;1.30;;;;;;;;;;5072590;28;20461;-46
2022/02/14 05:57:55;;;;;;;1.33;1.02;;;;;;;;;;5072549;28;20031;-46
2022/02/14 06:00:21;;;;;;;2.65;1.00;;;;;;;;;;5072464;28;20032;-46
2022/02/14 06:02:47;;;;;;;3.30;1.25;;;;;;;;;;5072209;28;20093;-46
2022/02/14 06:05:13;;;;;;;1.45;1.00;;;;;;;;;;5072319;28;20475;-46
2022/02/14 06:07:39;;;;;;;1.23;0.80;;;;;;;;;;5072253;28;20024;-46
2022/02/14 06:10:05;;;;;;;1.55;1.00;;;;;;;;;;5072151;28;20033;-46
2022/02/14 06:12:31;;;;;;;1.55;1.02;;;;;;;;;;5072230;28;20081;-46
2022/02/14 06:15:00;;;;;;;1.83;1.00;;;;;;;;;;5072452;28;20043;-46
2022/02/14 06:17:25;;;;;;;1.73;0.85;;;;;;;;;;5072206;28;20040;-46
2022/02/14 06:19:51;;;;;;;2.40;1.02;;;;;;;;;;5072116;28;20481;-46
2022/02/14 06:22:18;;;;;;;1.30;0.82;;;;;;;;;;5072117;28;20462;-46
2022/02/14 06:24:44;;;;;;;3.03;1.10;;;;;;;;;;5072082;28;20031;-46
2022/02/14 06:27:10;;;;;;;1.40;0.95;;;;;;;;;;5071969;28;20483;-46
2022/02/14 06:29:35;;;;;;;1.83;0.80;;;;;;;;;;5071961;28;20037;-45
2022/02/14 06:32:01;;;;;;;2.20;0.68;;;;;;;;;;5072004;28;20414;-46
2022/02/14 06:34:27;;;;;;;3.72;0.88;;;;;;;;;;5072035;28;20021;-45
2022/02/14 06:36:53;;;;;;;1.40;1.02;;;;;;;;;;5072001;28;20036;-45
2022/02/14 06:39:19;;;;;;;1.92;0.90;;;;;;;;;;5071950;28;20020;-45
2022/02/14 06:41:46;;;;;;;1.85;0.93;;;;;;;;;;5071942;28;20052;-45
2022/02/14 06:44:12;;;;;;;1.85;0.77;;;;;;;;;;5072127;28;20031;-46
2022/02/14 06:46:38;;;;;;;5.40;0.88;;;;;;;;;;5072015;28;20021;-45
2022/02/14 06:49:06;;;;;;;1.52;0.68;;;;;;;;;;5075360;28;20405;-45
2022/02/14 06:51:33;;;;;;;1.13;0.75;;;;;;;;;;5075927;28;20035;-45
2022/02/14 06:53:59;;;;;;;1.27;0.63;;;;;;;;;;5075776;28;20029;-45
2022/02/14 06:56:25;;;;;;;2.00;0.57;;;;;;;;;;5075859;28;20033;-45
2022/02/14 06:58:51;;;;;;;1.25;0.80;;;;;;;;;;5075778;28;20025;-45
2022/02/14 07:01:17;;;;;;;1.25;0.80;;;;;;;;;;5075900;28;20029;-46
2022/02/14 07:03:43;;;;;;;3.13;1.60;;;;;;;;;;5075516;28;20090;-44
2022/02/14 07:06:09;;;;;;;1.17;0.57;;;;;;;;;;5075540;28;20028;-45
2022/02/14 07:08:35;;;;;;;3.67;0.90;;;;;;;;;;5075901;28;20028;-45
2022/02/14 07:11:02;;;;;;;2.38;1.15;;;15.80;66.70;;;;;;5075809;28;20036;-45
2022/02/14 07:13:28;;;;;;;1.75;0.70;;;;;;;;;;5075793;28;20045;-44
2022/02/14 07:15:54;;;;;;;1.83;0.93;;;;;;;;;;5075807;28;20067;-45
2022/02/14 07:18:20;;;;;;;1.17;0.60;;;;;;;;;;5075681;28;20489;-45
2022/02/14 07:20:46;;;;;;;1.85;0.70;;;;;;;;;;5075700;28;20104;-45
2022/02/14 07:23:13;;;;;;;1.13;0.73;;;;;;;;;;5075543;28;20032;-45
2022/02/14 07:25:39;;;;;;;2.25;0.70;;;;;;;;;;5075570;28;20024;-45
2022/02/14 07:28:05;;;;;;;2.45;1.05;;;;;;;;;;5075497;28;20471;-44
2022/02/14 07:30:31;;;;;;;1.00;0.55;;;;;;;;;;5075363;28;20036;-45
2022/02/14 07:32:57;;;;;;;2.20;0.60;;;;;;;;;;5075381;28;20025;-43
2022/02/14 07:35:23;;;;;;;0.70;0.55;;;;;;;;;;5075328;28;20402;-45
2022/02/14 07:37:49;;;;;;;1.30;0.50;;;;;;;;;;5075316;28;20103;-45
2022/02/14 07:40:16;;;;;;;2.83;0.80;;;15.70;69.90;;;;;;5075201;28;20031;-45
2022/02/14 07:42:43;;;;;;;2.80;0.50;;;15.70;70.20;;;;;;5075136;28;20035;-45
2022/02/14 07:45:09;;;;;;;0.60;0.60;;;15.60;68.50;;;;;;5075182;28;20036;-45
2022/02/14 07:47:36;;;;;;;2.97;0.60;;;;;;;;;;5075055;28;20063;-45
2022/02/14 07:50:02;;;;;;;1.85;0.43;;;;;;;;;;5074685;28;20040;-44
2022/02/14 07:52:28;;;;;;;1.67;0.55;;;;;;;;;;5074698;28;20031;-45
2022/02/14 07:54:54;;;;;;;1.75;0.80;;;;;;;;;;5074625;28;20104;-45
2022/02/14 07:57:20;;;;;;;0.77;0.68;;;;;;;;;;5074958;28;20042;-45
2022/02/14 07:59:46;;;;;;;0.80;0.60;;;;;;;;;;5056137;28;20074;-45
2022/02/14 08:02:12;;;;;;;1.15;0.80;;;;;;;;;;5074535;28;20049;-45
2022/02/14 08:04:39;;;;;;;1.50;0.80;;;;;;;;;;5074907;28;20313;-45
2022/02/14 08:07:06;;;;;;;1.40;0.40;;;;;;;;;;5074829;28;20031;-45
2022/02/14 08:09:32;;;;;;;0.85;0.45;;;;;;;;;;5074887;28;20071;-46
2022/02/14 08:11:57;;;;;;;1.23;0.60;;;;;;;;;;5074707;28;20039;-46
2022/02/14 08:14:23;;;;;;;1.33;0.60;;;;;;;;;;5074551;28;20024;-46
2022/02/14 08:16:49;;;;;;;1.98;0.70;;;;;;;;;;5074428;28;20021;-46
2022/02/14 08:19:16;;;;;;;1.33;0.70;;;;;;;;;;5074258;28;20032;-46
2022/02/14 08:21:42;;;;;;;1.05;0.75;;;;;;;;;;5074431;28;20028;-44
2022/02/14 08:24:08;;;;;;;1.02;0.60;;;;;;;;;;5074839;28;20021;-43
2022/02/14 08:26:35;;;;;;;1.10;0.40;;;15.60;68.80;;;;;;5074384;28;20489;-46
2022/02/14 08:29:01;;;;;;;2.42;1.15;;;;;;;;;;5074361;28;20044;-43
2022/02/14 08:31:28;;;;;;;1.10;0.70;;;15.50;69.60;;;;;;5073959;28;20090;-43
2022/02/14 08:33:55;;;;;;;1.20;0.65;;;;;;;;;;5074221;28;20021;-43
2022/02/14 08:36:21;;;;;;;0.85;0.43;;;;;;;;;;5074249;28;20028;-44
2022/02/14 08:38:47;;;;;;;0.82;0.38;;;;;;;;;;5074446;28;20035;-43
2022/02/14 08:41:13;;;;;;;0.93;0.60;;;;;;;;;;5074193;28;20093;-43
2022/02/14 08:43:39;;;;;;;0.63;0.40;;;;;;;;;;5074068;28;20103;-43
2022/02/14 08:46:06;;;;;;;4.20;0.88;;;15.60;68.30;;;;;;5074122;28;20137;-43
2022/02/14 08:48:32;;;;;;;3.10;0.60;;;;;;;;;;5074289;28;20158;-44
2022/02/14 08:50:58;;;;;;;1.13;0.52;;;;;;;;;;5073905;28;20036;-43
2022/02/14 08:53:25;;;;;;;1.05;0.40;;;;;;;;;;5073973;28;20020;-44
2022/02/14 08:55:51;;;;;;;2.60;0.63;;;;;;;;;;5074030;28;20086;-44
2022/02/14 08:58:17;;;;;;;1.27;0.70;;;;;;;;;;5073538;28;20032;-43
2022/02/14 09:00:43;;;;;;;1.10;0.50;;;;;;;;;;5073774;28;20032;-46
2022/02/14 09:03:09;;;;;;;0.73;0.30;;;;;;;;;;5073514;28;20052;-42
2022/02/14 09:05:35;;;;;;;1.25;0.47;;;;;;;;;;5073766;28;20039;-42
2022/02/14 09:08:01;;;;;;;0.80;0.35;;;;;;;;;;5073377;28;20502;-46
2022/02/14 09:10:27;;;;;;;1.38;0.60;;;;;;;;;;5072273;28;20103;-43
2022/02/14 09:12:53;;;;;;;1.75;0.40;;;;;;;;;;5073578;28;20028;-46
2022/02/14 09:15:19;;;;;;;0.88;0.55;;;;;;;;;;5073497;28;20041;-43
2022/02/14 09:17:45;;;;;;;1.80;0.60;;;;;;;;;;5073387;28;20073;-44
2022/02/14 09:20:12;;;;;;;0.93;0.30;;;;;;;;;;5073352;28;20028;-43
2022/02/14 09:22:38;;;;;;;1.55;0.73;;;;;;;;;;5073155;28;20031;-46
2022/02/14 09:25:04;;;;;;;2.17;0.50;;;15.50;70.10;;;;;;5073315;28;20110;-44
2022/02/14 09:27:31;;;;;;;0.80;0.40;;;;;;;;;;5073564;28;20398;-45
2022/02/14 09:29:57;;;;;;;1.27;0.40;;;;;;;;;;5073100;28;20036;-46
2022/02/14 09:32:23;;;;;;;0.82;0.50;;;;;;;;;;5073390;28;20039;-46
2022/02/14 09:34:49;;;;;;;0.98;0.43;;;;;;;;;;5073042;28;20024;-43
2022/02/14 09:37:15;;;;;;;2.00;0.60;;;;;;;;;;5073073;28;20031;-43
2022/02/14 09:39:42;;;;;;;3.05;0.55;;;15.60;68.80;;;;;;5073009;28;20032;-43
2022/02/14 09:42:08;;;;;;;3.88;0.88;;;15.60;68.90;;;;;;5072901;28;20021;-43
2022/02/14 09:44:35;;;;;;;1.83;0.90;;;15.50;69.30;;;;;;5073213;28;20024;-46
2022/02/14 09:47:03;;;;;;;1.38;0.40;;;15.60;71.80;;;;;;5072792;28;20020;-46
2022/02/14 09:49:29;;;;;;;3.42;0.50;;;15.60;71.60;;;;;;5072711;28;20115;-46
2022/02/14 09:51:56;;;;;;;1.10;0.50;;;;;;;;;;5072624;28;20512;-43
2022/02/14 09:54:22;;;;;;;2.10;0.52;;;;;;;;;;5073035;28;20390;-44
2022/02/14 09:56:48;;;;;;;1.58;0.43;;;;;;;;;;5072709;28;20029;-44
2022/02/14 09:59:14;;;;;;;3.50;0.47;;;;;;;;;;5072666;28;20028;-46
2022/02/14 10:01:40;;;;;;;1.75;0.40;;;;;;;;;;5054368;28;20499;-43
2022/02/14 10:04:06;;;;;;;2.58;0.88;;;;;;;;;;5072527;28;20039;-43
2022/02/14 10:06:34;;;;;;;2.05;0.40;;;15.80;72.90;;;;;;5072508;28;20074;-44
2022/02/14 10:09:09;;;;;;;3.40;0.50;;;15.80;67.10;;;;;;5072441;28;20028;-44
2022/02/14 10:11:37;;;;;;;1.30;0.50;;;15.80;72.00;;;;;;5072612;28;20367;-44
2022/02/14 10:14:17;;;;;;;7.53;0.70;;;16.00;67.10;;;;;;5072703;28;20020;-43
2022/02/14 10:17:01;;;;;;;3.17;0.40;;;15.90;67.20;;;;;;5072506;28;20037;-46
2022/02/14 10:19:28;;;;;;;2.45;0.65;;;16.00;70.50;;;;;;5072558;28;20078;-46
2022/02/14 10:21:54;;;;;;;2.13;0.35;;;;;;;;;;5072337;28;20427;-45
2022/02/14 10:24:21;;;;;;;3.85;0.52;;;;;;;;;;5072372;28;20040;-44
2022/02/14 10:26:49;;;;;;;1.42;0.35;;;16.00;72.30;;;;;;5072333;28;20036;-43
2022/02/14 10:29:27;;;;;;;1.83;0.30;;;16.00;67.00;;;;;;5072223;28;20021;-43
2022/02/14 10:31:55;;;;;;;1.27;0.50;;;16.00;72.20;;;;;;5072242;28;20380;-44
2022/02/14 10:34:35;;;;;;;1.15;0.55;;;16.10;72.20;;;;;;5072096;28;20490;-43
2022/02/14 10:37:02;;;;;;;3.90;0.93;;;;;;;;;;5072427;28;20385;-43
2022/02/14 10:39:28;;;;;;;2.13;0.65;;;;;;;;;;5072289;28;20025;-46
2022/02/14 10:42:03;;;;;;;1.13;0.57;;;16.00;67.00;;;;;;5072194;28;20024;-45
2022/02/14 10:47:21;;;;;;;3.75;0.95;;;15.90;72.50;;;;;;5072468;28;20028;-46
2022/02/14 10:50:13;;;;;;;2.47;0.38;;;16.00;67.30;;;;;;5072467;28;20031;-46
2022/02/14 10:53:00;;;;;;;1.42;0.55;;;16.00;67.00;;;;;;5068982;28;20518;-46
2022/02/14 10:55:32;;;;;;;1.55;0.43;;;15.90;66.90;;;;;;5071917;28;20033;-46
2022/02/14 10:57:59;;;;;;;1.48;0.30;;;16.00;72.20;;;;;;5053813;28;20524;-45
2022/02/14 11:00:33;;;;;;;1.52;0.38;;;16.00;72.10;;;;;;5071833;28;20474;-46
2022/02/14 11:03:06;;;;;;;0.95;0.45;;;16.00;68.90;;;;;;5071754;28;20045;-45
2022/02/14 11:05:32;;;;;;;1.23;0.60;;;;;;;;;;5072322;28;20032;-45
2022/02/14 11:07:58;;;;;;;0.65;0.32;;;16.10;68.80;;;;;;5072244;28;20119;-46
2022/02/14 11:10:24;;;;;;;2.20;0.57;;;;;;;;;;5071917;28;20032;-45
2022/02/14 11:12:55;;;;;;;2.92;0.70;;;16.00;71.70;;;;;;5071793;28;20028;-46
2022/02/14 11:15:27;;;;;;;1.00;0.65;;;16.00;66.40;;;;;;5071879;28;20074;-45
2022/02/14 11:17:55;;;;;;;1.52;0.75;;;16.00;71.70;;;;;;5072092;28;20028;-46
2022/02/14 11:20:21;;;;;;;1.42;0.47;;;;;;;;;;5071809;28;20051;-46
2022/02/14 11:22:49;;;;;;;2.50;0.50;;;16.10;71.70;;;;;;5071800;28;20017;-45
2022/02/14 11:25:20;;;;;;;0.57;0.43;;;16.00;66.30;;;;;;5071752;28;20509;-46
2022/02/14 11:28:11;;;;;;;3.42;0.63;;;16.00;66.40;;;;;;5071942;28;20112;-46
2022/02/14 11:30:37;;;;;;;2.60;0.40;;;;;;;;;;5071778;28;20048;-46
2022/02/14 11:33:04;;;;;;;2.38;0.55;;;16.00;71.70;;;;;;5071448;28;20031;-46
2022/02/14 11:35:30;;;;;;;1.35;0.43;;;;;;;;;;5075068;28;20028;-48
2022/02/14 11:38:00;;;;;;;1.35;0.30;;;16.00;71.80;;;;;;5075036;28;20528;-45
2022/02/14 11:40:36;;;;;;;0.47;0.20;;;16.00;66.40;;;;;;5075216;28;20020;-46
2022/02/14 11:43:19;;;;;;;0.90;0.63;;;16.00;66.40;;;;;;5075157;28;20471;-45
2022/02/14 11:45:44;;;;;;;2.03;0.63;;;;;;;;;;5075560;28;20028;-45
2022/02/14 11:48:27;;;;;;;6.45;0.45;;;16.00;66.40;;;;;;5075041;28;20444;-46
2022/02/14 11:51:08;;;;;;;2.00;0.45;;;16.00;66.30;;;;;;5074821;28;20037;-45
2022/02/14 11:53:38;;;;;;;3.00;0.60;;;16.00;66.30;;;;;;5075004;28;20100;-45
2022/02/14 11:56:21;;;;;;;1.63;0.55;;;16.00;66.40;;;;;;5074776;28;20028;-45
2022/02/14 11:59:07;;;;;;;1.30;0.40;;;15.90;66.20;;;;;;5074674;28;20067;-45
2022/02/14 12:01:45;;;;;;;2.70;0.55;;;16.00;66.30;;;;;;5074307;28;20363;-45
2022/02/14 12:04:40;;;;;;;4.18;0.47;;;16.00;66.50;;;;;;5074266;28;20102;-45
2022/02/14 12:07:25;;;;;;;2.90;0.47;;;16.00;66.30;;;;;;5074421;28;20024;-45
2022/02/14 12:09:56;;;;;;;0.90;0.30;;;16.00;66.30;;;;;;5074357;28;20025;-45
2022/02/14 12:12:49;;;;;;;4.55;0.50;;;16.00;66.50;;;;;;5074511;28;20394;-45
2022/02/14 12:20:42;;;;;;;0.88;0.38;;;16.00;69.40;;;;;;5074753;28;20398;-45
2022/02/14 12:23:08;;;;;;;1.52;0.70;;;;;;;;;;5074364;28;20540;-46
2022/02/14 12:25:35;;;;;;;1.60;0.50;;;16.00;70.20;;;;;;5074262;28;20028;-46
2022/02/14 12:28:08;;;;;;;0.60;0.30;;;16.00;71.50;;;;;;5074198;28;20024;-45
2022/02/14 12:30:34;;;;;;;3.13;0.50;;;;;;;;;;5074181;28;20032;-46
2022/02/14 12:33:00;;;;;;;1.50;0.57;;;;;;;;;;5073995;28;20029;-44
2022/02/14 12:35:30;;;;;;;3.50;0.60;;;16.00;66.30;;;;;;5073946;28;20535;-45
2022/02/14 12:37:56;;;;;;;1.02;0.50;;;;;;;;;;5073937;28;20032;-46
2022/02/14 12:40:22;;;;;;;2.90;0.45;;;;;;;;;;5074156;28;20060;-46
2022/02/14 12:42:48;;;;;;;1.35;0.50;;;;;;;;;;5074243;28;20024;-45
2022/02/14 12:45:15;;;;;;;2.45;0.57;;;16.00;71.70;;;;;;5074241;28;20016;-45
2022/02/14 12:47:42;;;;;;;0.93;0.50;;;;;;;;;;5074036;28;20021;-45
2022/02/14 12:50:09;;;;;;;2.85;0.88;;;;;;;;;;5074133;28;20056;-46
2022/02/14 12:52:35;;;;;;;1.70;0.70;;;;;;;;;;5073708;28;20068;-46
2022/02/14 12:55:03;;;;;;;1.95;0.50;;;15.90;71.50;;;;;;5074119;28;20020;-45
2022/02/14 12:57:37;;;;;;;1.80;0.50;;;15.90;66.20;;;;;;5073787;28;20510;-45
2022/02/14 13:00:17;;;;;;;1.45;0.50;;;15.90;71.60;;;;;;5073835;28;20025;-46
2022/02/14 13:02:51;;;;;;;1.77;0.60;;;16.00;71.50;;;;;;5073407;28;20049;-45
2022/02/14 13:05:18;;;;;;;1.17;0.40;;;;;;;;;;5073688;28;20029;-45
2022/02/14 13:07:44;;;;;;;1.65;0.45;;;;;;;;;;5073531;28;20071;-45
2022/02/14 13:10:10;;;;;;;1.30;0.60;;;;;;;;;;5073418;28;20063;-45
2022/02/14 13:12:36;;;;;;;2.05;0.57;;;;;;;;;;5073630;28;20028;-46
2022/02/14 13:15:07;;;;;;;1.42;0.65;;;16.70;64.90;;;;;;5073180;28;20043;-45
2022/02/14 13:17:33;;;;;;;1.17;0.35;;;;;;;;;;5073235;28;20032;-45
2022/02/14 13:20:05;;;;;;;1.92;0.55;;;16.80;69.70;;;;;;5073036;28;20039;-45
2022/02/14 13:22:38;;;;;;;1.92;0.50;;;17.00;69.40;;;;;;5073038;28;20031;-45
2022/02/14 13:25:18;;;;;;;2.25;0.50;;;17.00;69.50;;;;;;5073133;28;20470;-46
2022/02/14 13:27:44;;;;;;;2.28;0.30;;;;;;;;;;5073194;28;20107;-45
2022/02/14 13:30:12;;;;;;;1.98;0.40;;;17.10;69.20;;;;;;5073074;28;20120;-45
2022/02/14 13:32:43;;;;;;;3.55;0.52;;;17.10;69.40;;;;;;5073109;28;20032;-45
2022/02/14 13:35:15;;;;;;;2.35;0.80;;;17.20;63.90;;;;;;5073225;28;20016;-46
2022/02/14 13:37:57;;;;;;;1.90;0.75;;;17.20;63.60;;;;;;5072904;28;20040;-47
2022/02/14 13:40:23;;;;;;;1.67;0.52;;;;;;;;;;5072871;28;20504;-45
2022/02/14 13:42:59;;;;;;;1.02;0.50;;;17.30;63.40;;;;;;5072516;28;20055;-45
2022/02/14 13:45:47;;;;;;;1.52;0.40;;;17.30;63.40;;;;;;5072590;28;20025;-45
2022/02/14 13:48:16;;;;;;;1.92;0.57;;;17.30;69.00;;;;;;5073098;28;20073;-45
2022/02/14 13:50:42;;;;;;;0.50;0.30;;;;;;;;;;5072917;28;20060;-45
2022/02/14 13:53:24;;;;;;;1.85;0.50;;;17.30;69.10;;;;;;5072749;28;20025;-45
2022/02/14 13:56:16;;;;;;;0.63;0.30;;;17.30;63.60;;;;;;5072651;28;20062;-45
2022/02/14 13:58:56;;;;;;;1.65;0.40;;;17.30;63.30;;;;;;5072606;28;20034;-45
2022/02/14 14:01:22;;;;;;;1.52;0.57;;;;;;;;;;5072789;28;20359;-45
2022/02/14 14:03:50;;;;;;;1.67;0.60;;;17.50;68.80;;;;;;5072437;28;20044;-45
2022/02/14 14:06:35;;;;;;;1.92;0.45;;;17.60;63.30;;;;;;5072548;28;20060;-46
2022/02/14 14:09:21;;;;;;;1.33;0.40;;;17.60;68.70;;;;;;5072780;28;20075;-45
2022/02/14 14:11:48;;;;;;;1.95;0.45;;;17.60;68.60;;;;;;5072723;28;20036;-45
2022/02/14 14:14:32;;;;;;;0.93;0.30;;;17.60;63.10;;;;;;5072543;28;20027;-46
2022/02/14 14:16:58;;;;;;;0.95;0.40;;;;;;;;;;5072409;28;20039;-45
2022/02/14 14:19:24;;;;;;;1.88;0.43;;;;;;;;;;5072417;28;20025;-45
2022/02/14 14:21:53;;;;;;;1.02;0.40;;;;;;;;;;5072398;28;20032;-45
2022/02/14 14:24:19;;;;;;;1.35;0.40;;;;;;;;;;5072402;28;20121;-45
2022/02/14 14:26:45;;;;;;;1.15;0.40;;;;;;;;;;5072246;28;20025;-45
2022/02/14 14:29:13;;;;;;;0.75;0.32;;;;;;;;;;5072289;28;20108;-46